createdAt,value
2023-05-20T00:00:07.911Z,47.29
2023-05-20T00:02:54.746Z,47.35
2023-05-20T00:05:21.926Z,47.62
2023-05-20T00:07:48.688Z,47.58
2023-05-20T00:10:15.816Z,47.67
2023-05-20T00:12:42.569Z,47.47
2023-05-20T00:15:10.035Z,47.34
2023-05-20T00:17:36.888Z,47.70
2023-05-20T00:20:05.549Z,47.98
2023-05-20T00:22:32.354Z,47.55
2023-05-20T00:24:59.536Z,47.29
2023-05-20T00:27:26.316Z,47.58
2023-05-20T00:29:53.572Z,47.62
2023-05-20T00:32:20.403Z,47.62
2023-05-20T00:34:57.335Z,47.09
2023-05-20T00:37:24.426Z,47.67
2023-05-20T00:39:51.496Z,47.74
2023-05-20T00:42:28.114Z,47.49
2023-05-20T00:44:55.647Z,47.23
2023-05-20T00:47:33.407Z,47.48
2023-05-20T00:50:00.537Z,47.95
2023-05-20T00:52:27.826Z,47.68
2023-05-20T00:54:54.872Z,47.97
2023-05-20T00:57:21.716Z,47.85
2023-05-20T00:59:49.023Z,47.87
2023-05-20T01:02:15.846Z,47.82
2023-05-20T01:04:47.155Z,47.59
2023-05-20T01:07:15.453Z,47.53
2023-05-20T01:09:42.609Z,47.78
2023-05-20T01:12:17.346Z,47.40
2023-05-20T01:14:48.717Z,47.55
2023-05-20T01:17:17.828Z,47.85
2023-05-20T01:19:45.571Z,47.65
2023-05-20T01:22:13.689Z,47.79
2023-05-20T01:24:45.140Z,47.51
2023-05-20T01:27:13.500Z,47.75
2023-05-20T01:29:41.026Z,48.37
2023-05-20T01:32:10.723Z,47.91
2023-05-20T01:34:37.763Z,47.55
2023-05-20T01:37:05.624Z,47.92
2023-05-20T01:39:34.235Z,47.94
2023-05-20T01:42:01.003Z,48.30
2023-05-20T01:44:28.365Z,48.15
2023-05-20T01:46:55.143Z,47.60
2023-05-20T01:49:22.282Z,47.67
2023-05-20T01:51:49.010Z,47.83
2023-05-20T01:54:16.066Z,47.97
2023-05-20T01:56:42.850Z,47.99
2023-05-20T01:59:09.976Z,48.08
2023-05-20T02:01:36.724Z,47.87
2023-05-20T02:04:03.860Z,47.67
2023-05-20T02:06:30.623Z,47.69
2023-05-20T02:08:57.846Z,47.86
2023-05-20T02:11:24.594Z,48.13
2023-05-20T02:13:51.758Z,47.54
2023-05-20T02:16:18.613Z,47.69
2023-05-20T02:18:45.710Z,47.49
2023-05-20T02:21:12.454Z,47.65
2023-05-20T02:23:39.657Z,47.36
2023-05-20T02:26:06.463Z,47.61
2023-05-20T02:28:33.646Z,47.78
2023-05-20T02:31:00.459Z,47.46
2023-05-20T02:33:29.168Z,47.68
2023-05-20T02:35:56.082Z,47.43
2023-05-20T02:38:23.137Z,47.74
2023-05-20T02:40:49.877Z,48.19
2023-05-20T02:43:16.912Z,47.89
2023-05-20T02:45:43.980Z,47.84
2023-05-20T02:48:11.340Z,47.67
2023-05-20T02:50:41.059Z,47.77
2023-05-20T02:53:08.233Z,47.76
2023-05-20T02:55:36.083Z,47.78
2023-05-20T02:58:03.936Z,48.13
2023-05-20T03:00:31.527Z,48.07
2023-05-20T03:03:01.295Z,48.08
2023-05-20T03:05:28.121Z,48.14
2023-05-20T03:07:55.505Z,48.45
2023-05-20T03:10:22.359Z,48.13
2023-05-20T03:12:49.437Z,48.34
2023-05-20T03:15:16.571Z,48.02
2023-05-20T03:17:43.668Z,47.97
2023-05-20T03:20:12.399Z,47.72
2023-05-20T03:22:39.526Z,48.05
2023-05-20T03:25:06.489Z,47.82
2023-05-20T03:27:34.546Z,47.98
2023-05-20T03:30:01.706Z,48.04
2023-05-20T03:32:28.882Z,48.14
2023-05-20T03:34:58.150Z,47.81
2023-05-20T03:37:25.362Z,47.76
2023-05-20T03:39:52.190Z,47.84
2023-05-20T03:42:19.258Z,47.69
2023-05-20T03:44:46.058Z,47.91
2023-05-20T03:47:13.113Z,48.09
2023-05-20T03:49:41.188Z,48.18
2023-05-20T03:52:08.301Z,47.81
2023-05-20T03:54:36.261Z,47.80
2023-05-20T03:57:03.494Z,47.88
2023-05-20T03:59:30.233Z,47.92
2023-05-20T04:01:57.374Z,47.93
2023-05-20T04:04:24.262Z,48.00
2023-05-20T04:06:51.548Z,48.02
2023-05-20T04:09:18.277Z,47.95
2023-05-20T04:11:45.471Z,48.16
2023-05-20T04:14:12.195Z,48.08
2023-05-20T04:16:39.496Z,48.10
2023-05-20T04:19:06.325Z,47.82
2023-05-20T04:21:33.432Z,48.10
2023-05-20T04:24:00.242Z,48.05
2023-05-20T04:26:27.373Z,47.93
2023-05-20T04:28:54.076Z,48.03
2023-05-20T04:31:27.005Z,47.90
2023-05-20T04:33:54.606Z,48.70
2023-05-20T04:36:22.341Z,48.84
2023-05-20T04:38:49.727Z,48.30
2023-05-20T04:41:16.775Z,48.46
2023-05-20T04:43:44.066Z,48.56
2023-05-20T04:46:11.141Z,48.64
2023-05-20T04:48:38.003Z,48.42
2023-05-20T04:51:05.065Z,48.58
2023-05-20T04:53:31.868Z,48.18
2023-05-20T04:55:58.954Z,48.48
2023-05-20T04:58:25.890Z,48.39
2023-05-20T05:00:53.013Z,48.28
2023-05-20T05:03:19.801Z,48.24
2023-05-20T05:05:46.954Z,48.19
2023-05-20T05:08:13.722Z,48.32
2023-05-20T05:10:41.011Z,48.79
2023-05-20T05:13:07.786Z,49.01
2023-05-20T05:15:35.098Z,49.32
2023-05-20T05:18:02.131Z,48.44
2023-05-20T05:20:29.251Z,48.39
2023-05-20T05:22:56.141Z,49.05
2023-05-20T05:25:23.240Z,48.64
2023-05-20T05:27:50.432Z,48.62
2023-05-20T05:30:17.625Z,48.63
2023-05-20T05:32:44.541Z,48.96
2023-05-20T05:35:11.725Z,48.75
2023-05-20T05:37:38.510Z,48.75
2023-05-20T05:40:07.011Z,48.55
2023-05-20T05:42:33.756Z,48.53
2023-05-20T05:45:00.884Z,48.57
2023-05-20T05:47:32.387Z,48.56
2023-05-20T05:50:00.140Z,48.81
2023-05-20T05:52:27.342Z,48.48
2023-05-20T05:54:54.697Z,48.56
2023-05-20T05:57:21.527Z,49.42
2023-05-20T05:59:48.625Z,48.71
2023-05-20T06:02:15.435Z,48.50
2023-05-20T06:04:42.725Z,48.33
2023-05-20T06:07:09.557Z,48.27
2023-05-20T06:09:36.646Z,48.33
2023-05-20T06:12:03.781Z,48.55
2023-05-20T06:14:31.945Z,48.39
2023-05-20T06:16:58.812Z,48.91
2023-05-20T06:19:26.139Z,48.88
2023-05-20T06:21:52.893Z,48.89
2023-05-20T06:24:22.400Z,48.48
2023-05-20T06:26:51.211Z,49.31
2023-05-20T06:29:18.227Z,50.20
2023-05-20T06:31:45.031Z,51.04
2023-05-20T06:34:12.109Z,50.93
2023-05-20T06:36:38.821Z,51.00
2023-05-20T06:39:11.402Z,50.63
2023-05-20T06:41:41.284Z,50.42
2023-05-20T06:44:08.343Z,50.76
2023-05-20T06:46:35.154Z,50.51
2023-05-20T06:49:02.281Z,49.95
2023-05-20T06:51:29.121Z,50.19
2023-05-20T06:53:56.297Z,50.50
2023-05-20T06:56:23.153Z,50.24
2023-05-20T06:58:50.204Z,50.41
2023-05-20T07:01:18.379Z,50.56
2023-05-20T07:03:45.883Z,50.12
2023-05-20T07:06:12.719Z,50.45
2023-05-20T07:08:39.820Z,50.53
2023-05-20T07:11:06.559Z,49.97
2023-05-20T07:13:33.613Z,49.44
2023-05-20T07:16:00.406Z,49.82
2023-05-20T07:18:28.482Z,49.97
2023-05-20T07:20:56.899Z,49.88
2023-05-20T07:23:24.306Z,50.11
2023-05-20T07:25:51.723Z,49.86
2023-05-20T07:28:20.875Z,49.72
2023-05-20T07:30:50.217Z,50.38
2023-05-20T07:33:17.797Z,50.13
2023-05-20T07:35:45.062Z,50.07
2023-05-20T07:38:12.729Z,49.43
2023-05-20T07:40:40.747Z,49.84
2023-05-20T07:43:08.706Z,49.19
2023-05-20T07:45:37.279Z,49.87
2023-05-20T07:48:05.183Z,49.59
2023-05-20T07:50:32.080Z,49.71
2023-05-20T07:52:59.317Z,49.10
2023-05-20T07:55:26.172Z,48.67
2023-05-20T07:57:53.354Z,49.60
2023-05-20T08:00:20.764Z,50.00
2023-05-20T08:02:47.922Z,49.62
2023-05-20T08:05:14.898Z,49.80
2023-05-20T08:07:41.937Z,50.34
2023-05-20T08:10:09.408Z,50.86
2023-05-20T08:12:36.532Z,50.47
2023-05-20T08:15:03.901Z,50.37
2023-05-20T08:17:31.083Z,50.40
2023-05-20T08:19:57.886Z,50.27
2023-05-20T08:22:24.923Z,50.16
2023-05-20T08:24:51.774Z,50.42
2023-05-20T08:27:18.808Z,50.19
2023-05-20T08:29:45.656Z,49.78
2023-05-20T08:32:12.784Z,50.00
2023-05-20T08:34:40.074Z,50.46
2023-05-20T08:37:07.111Z,49.47
2023-05-20T08:39:34.148Z,49.03
2023-05-20T08:42:01.831Z,49.15
2023-05-20T08:44:28.605Z,49.26
2023-05-20T08:46:56.062Z,48.59
2023-05-20T08:49:22.864Z,48.62
2023-05-20T08:51:49.983Z,49.05
2023-05-20T08:54:16.959Z,48.57
2023-05-20T08:56:44.088Z,48.70
2023-05-20T08:59:10.876Z,48.88
2023-05-20T09:01:43.218Z,48.66
2023-05-20T09:04:10.126Z,48.64
2023-05-20T09:06:44.854Z,49.01
2023-05-20T09:09:15.214Z,48.91
2023-05-20T09:11:42.553Z,48.71
2023-05-20T09:14:09.316Z,48.74
2023-05-20T09:16:36.389Z,48.94
2023-05-20T09:19:06.398Z,48.43
2023-05-20T09:21:34.957Z,48.93
2023-05-20T09:24:02.279Z,48.70
2023-05-20T09:26:30.068Z,48.90
2023-05-20T09:28:58.003Z,49.18
2023-05-20T09:31:31.578Z,48.98
2023-05-20T09:33:58.354Z,48.70
2023-05-20T09:36:25.835Z,48.25
2023-05-20T09:38:55.701Z,48.56
2023-05-20T09:41:23.669Z,48.23
2023-05-20T09:43:50.490Z,48.16
2023-05-20T09:46:17.655Z,48.29
2023-05-20T09:48:44.485Z,47.79
2023-05-20T09:51:12.064Z,46.88
2023-05-20T09:53:38.828Z,47.11
2023-05-20T09:56:06.279Z,46.24
2023-05-20T09:58:34.295Z,47.14
2023-05-20T10:01:01.923Z,47.66
2023-05-20T10:03:28.892Z,47.10
2023-05-20T10:06:20.272Z,47.29
2023-05-20T10:08:52.022Z,47.00
2023-05-20T10:11:45.300Z,46.75
2023-05-20T10:14:33.936Z,46.90
2023-05-20T10:17:11.212Z,46.36
2023-05-20T10:19:38.018Z,46.75
2023-05-20T10:22:06.766Z,47.06
2023-05-20T10:24:35.219Z,47.16
2023-05-20T10:27:04.615Z,46.50
2023-05-20T10:29:43.279Z,46.42
2023-05-20T10:32:10.531Z,46.55
2023-05-20T10:34:48.089Z,46.86
2023-05-20T10:37:26.425Z,46.57
2023-05-20T10:39:53.307Z,45.96
2023-05-20T10:42:28.287Z,46.25
2023-05-20T10:44:55.110Z,46.62
2023-05-20T10:47:26.054Z,46.76
2023-05-20T10:49:53.314Z,46.22
2023-05-20T10:52:20.731Z,46.47
2023-05-20T10:54:50.943Z,46.58
2023-05-20T10:57:18.853Z,46.39
2023-05-20T10:59:47.505Z,46.72
2023-05-20T11:02:15.954Z,46.65
2023-05-20T11:04:46.781Z,46.30
2023-05-20T11:07:13.888Z,46.06
2023-05-20T11:09:49.191Z,45.64
2023-05-20T11:12:17.384Z,46.29
2023-05-20T11:14:44.195Z,45.49
2023-05-20T11:17:11.362Z,45.74
2023-05-20T11:19:38.404Z,45.43
2023-05-20T11:22:08.105Z,45.78
2023-05-20T11:24:34.869Z,45.66
2023-05-20T11:27:02.231Z,45.82
2023-05-20T11:29:37.978Z,45.15
2023-05-20T11:32:05.550Z,45.44
2023-05-20T11:34:36.465Z,45.18
2023-05-20T11:37:07.791Z,45.26
2023-05-20T11:39:34.677Z,45.06
2023-05-20T11:42:01.826Z,45.17
2023-05-20T11:44:28.606Z,44.98
2023-05-20T11:47:00.257Z,44.60
2023-05-20T11:49:27.042Z,45.04
2023-05-20T11:51:54.099Z,44.55
2023-05-20T11:54:22.511Z,44.58
2023-05-20T11:56:49.606Z,44.76
2023-05-20T11:59:16.391Z,44.38
2023-05-20T12:01:43.715Z,44.67
2023-05-20T12:04:10.799Z,44.74
2023-05-20T12:06:38.263Z,44.41
2023-05-20T12:09:07.175Z,43.95
2023-05-20T12:11:35.790Z,44.19
2023-05-20T12:14:04.037Z,44.53
2023-05-20T12:16:31.833Z,44.40
2023-05-20T12:18:58.725Z,44.40
2023-05-20T12:21:26.011Z,44.03
2023-05-20T12:23:57.577Z,43.97
2023-05-20T12:26:25.960Z,43.87
2023-05-20T12:28:53.069Z,43.77
2023-05-20T12:31:20.363Z,43.84
2023-05-20T12:33:47.235Z,44.01
2023-05-20T12:36:14.715Z,43.46
2023-05-20T12:38:41.473Z,43.58
2023-05-20T12:41:08.548Z,43.56
2023-05-20T12:43:38.397Z,43.65
2023-05-20T12:46:05.902Z,43.31
2023-05-20T12:48:32.838Z,43.34
2023-05-20T12:51:00.128Z,42.97
2023-05-20T12:53:26.854Z,43.46
2023-05-20T12:55:54.063Z,43.48
2023-05-20T12:58:20.864Z,43.83
2023-05-20T13:00:47.954Z,43.30
2023-05-20T13:03:15.023Z,43.79
2023-05-20T13:05:42.470Z,43.35
2023-05-20T13:08:10.295Z,43.32
2023-05-20T13:10:38.097Z,43.66
2023-05-20T13:13:05.149Z,43.35
2023-05-20T13:15:33.490Z,43.36
2023-05-20T13:18:01.558Z,43.62
2023-05-20T13:20:29.954Z,43.54
2023-05-20T13:22:56.726Z,43.08
2023-05-20T13:25:23.852Z,43.77
2023-05-20T13:27:50.974Z,43.63
2023-05-20T13:30:18.101Z,43.72
2023-05-20T13:32:45.081Z,43.69
2023-05-20T13:35:13.206Z,43.21
2023-05-20T13:37:40.029Z,43.49
2023-05-20T13:40:07.790Z,43.78
2023-05-20T13:42:34.621Z,42.84
2023-05-20T13:45:01.791Z,43.51
2023-05-20T13:47:28.741Z,43.67
2023-05-20T13:49:55.988Z,43.75
2023-05-20T13:52:22.848Z,43.80
2023-05-20T13:54:49.887Z,43.72
2023-05-20T13:57:16.762Z,43.89
2023-05-20T13:59:43.988Z,43.69
2023-05-20T14:02:11.200Z,43.33
2023-05-20T14:04:40.029Z,43.49
2023-05-20T14:07:09.620Z,43.51
2023-05-20T14:09:37.151Z,43.81
2023-05-20T14:12:04.781Z,43.40
2023-05-20T14:14:31.964Z,43.46
2023-05-20T14:16:58.727Z,43.27
2023-05-20T14:19:27.092Z,43.38
2023-05-20T14:21:54.010Z,43.38
2023-05-20T14:24:23.026Z,43.15
2023-05-20T14:26:50.632Z,43.27
2023-05-20T14:29:17.828Z,43.19
2023-05-20T14:31:44.759Z,43.42
2023-05-20T14:34:11.891Z,43.17
2023-05-20T14:36:38.921Z,43.42
2023-05-20T14:39:06.008Z,43.20
2023-05-20T14:41:32.784Z,43.36
2023-05-20T14:43:59.931Z,43.31
2023-05-20T14:46:26.774Z,43.55
2023-05-20T14:48:53.847Z,43.70
2023-05-20T14:51:20.732Z,43.36
2023-05-20T14:53:47.751Z,43.44
2023-05-20T14:56:14.529Z,43.24
2023-05-20T14:58:42.051Z,43.15
2023-05-20T15:01:09.229Z,42.97
2023-05-20T15:03:36.701Z,43.03
2023-05-20T15:06:03.818Z,42.86
2023-05-20T15:08:31.461Z,43.04
2023-05-20T15:10:58.331Z,42.91
2023-05-20T15:13:25.407Z,43.00
2023-05-20T15:15:52.981Z,43.19
2023-05-20T15:18:20.129Z,43.34
2023-05-20T15:20:46.876Z,43.19
2023-05-20T15:23:14.055Z,43.12
2023-05-20T15:25:40.822Z,42.98
2023-05-20T15:28:07.931Z,43.48
2023-05-20T15:30:34.923Z,42.88
2023-05-20T15:33:03.055Z,43.34
2023-05-20T15:35:29.939Z,43.50
2023-05-20T15:37:57.064Z,43.65
2023-05-20T15:40:23.860Z,43.76
2023-05-20T15:42:51.521Z,43.91
2023-05-20T15:45:18.394Z,43.87
2023-05-20T15:47:45.545Z,43.91
2023-05-20T15:50:12.584Z,43.54
2023-05-20T15:52:39.918Z,43.72
2023-05-20T15:55:07.492Z,43.45
2023-05-20T15:57:34.634Z,43.85
2023-05-20T16:00:01.602Z,43.47
2023-05-20T16:02:29.028Z,43.35
2023-05-20T16:04:56.159Z,43.27
2023-05-20T16:07:23.280Z,43.29
2023-05-20T16:09:50.066Z,43.70
2023-05-20T16:12:17.274Z,43.75
2023-05-20T16:14:44.794Z,43.58
2023-05-20T16:17:12.285Z,43.77
2023-05-20T16:19:39.252Z,43.45
2023-05-20T16:22:06.336Z,43.32
2023-05-20T16:24:33.165Z,43.57
2023-05-20T16:27:00.448Z,44.01
2023-05-20T16:29:27.370Z,43.81
2023-05-20T16:31:54.461Z,43.92
2023-05-20T16:34:21.345Z,43.57
2023-05-20T16:36:48.411Z,43.13
2023-05-20T16:39:15.514Z,42.65
2023-05-20T16:41:42.686Z,42.87
2023-05-20T16:44:09.702Z,42.43
2023-05-20T16:46:36.880Z,41.94
2023-05-20T16:49:03.624Z,42.19
2023-05-20T16:51:31.150Z,41.88
2023-05-20T16:53:57.890Z,42.26
2023-05-20T16:56:24.957Z,42.27
2023-05-20T16:58:53.132Z,42.00
2023-05-20T17:01:21.331Z,42.38
2023-05-20T17:03:48.115Z,42.49
2023-05-20T17:06:15.172Z,42.63
2023-05-20T17:08:41.957Z,42.34
2023-05-20T17:11:09.040Z,42.00
2023-05-20T17:13:36.216Z,42.13
2023-05-20T17:16:03.321Z,42.69
2023-05-20T17:18:30.100Z,42.39
2023-05-20T17:20:57.170Z,42.51
2023-05-20T17:23:23.995Z,42.06
2023-05-20T17:25:51.300Z,42.25
2023-05-20T17:28:18.089Z,42.46
2023-05-20T17:30:45.288Z,42.39
2023-05-20T17:33:12.331Z,42.53
2023-05-20T17:35:39.502Z,42.64
2023-05-20T17:38:06.277Z,42.71
2023-05-20T17:40:33.667Z,42.63
2023-05-20T17:43:00.686Z,42.68
2023-05-20T17:45:27.724Z,42.44
2023-05-20T17:47:54.679Z,42.51
2023-05-20T17:50:21.901Z,42.79
2023-05-20T17:52:48.730Z,42.85
2023-05-20T17:55:18.339Z,42.67
2023-05-20T17:57:45.064Z,42.73
2023-05-20T18:00:13.098Z,43.10
2023-05-20T18:02:40.040Z,43.18
2023-05-20T18:05:07.728Z,43.24
2023-05-20T18:07:36.115Z,43.07
2023-05-20T18:10:05.074Z,42.94
2023-05-20T18:12:31.875Z,43.02
2023-05-20T18:14:58.992Z,43.03
2023-05-20T18:17:25.896Z,43.06
2023-05-20T18:19:53.053Z,43.35
2023-05-20T18:22:19.880Z,42.92
2023-05-20T18:24:47.107Z,43.26
2023-05-20T18:27:13.846Z,43.00
2023-05-20T18:29:40.927Z,43.27
2023-05-20T18:32:08.221Z,43.38
2023-05-20T18:34:35.330Z,43.18
2023-05-20T18:37:02.194Z,42.69
2023-05-20T18:39:29.310Z,43.01
2023-05-20T18:41:56.116Z,43.20
2023-05-20T18:44:23.245Z,42.87
2023-05-20T18:46:50.037Z,43.30
2023-05-20T18:49:17.111Z,43.25
2023-05-20T18:51:43.856Z,43.22
2023-05-20T18:54:11.018Z,43.25
2023-05-20T18:56:37.870Z,43.21
2023-05-20T18:59:04.928Z,43.68
2023-05-20T19:01:34.000Z,43.06
2023-05-20T19:04:01.480Z,42.91
2023-05-20T19:06:28.287Z,42.97
2023-05-20T19:08:55.418Z,43.39
2023-05-20T19:11:22.220Z,43.21
2023-05-20T19:13:49.326Z,43.63
2023-05-20T19:16:16.555Z,43.27
2023-05-20T19:18:43.821Z,43.11
2023-05-20T19:21:10.742Z,43.26
2023-05-20T19:23:37.836Z,43.29
2023-05-20T19:26:04.758Z,43.12
2023-05-20T19:28:31.853Z,43.57
2023-05-20T19:30:58.715Z,43.19
2023-05-20T19:33:26.009Z,43.44
2023-05-20T19:35:52.778Z,43.76
2023-05-20T19:38:19.880Z,43.64
2023-05-20T19:40:47.867Z,43.35
2023-05-20T19:43:14.990Z,43.70
2023-05-20T19:45:41.846Z,43.56
2023-05-20T19:48:09.103Z,44.11
2023-05-20T19:50:37.972Z,44.05
2023-05-20T19:53:07.387Z,43.73
2023-05-20T19:55:35.608Z,43.75
2023-05-20T19:58:03.064Z,43.66
2023-05-20T20:00:29.914Z,44.22
2023-05-20T20:02:57.742Z,44.06
2023-05-20T20:05:25.949Z,44.21
2023-05-20T20:07:52.898Z,44.42
2023-05-20T20:10:20.049Z,43.92
2023-05-20T20:12:46.880Z,43.96
2023-05-20T20:15:14.372Z,44.42
2023-05-20T20:17:45.420Z,44.03
2023-05-20T20:20:15.699Z,44.53
2023-05-20T20:22:42.434Z,44.53
2023-05-20T20:25:09.623Z,44.48
2023-05-20T20:27:36.346Z,44.55
2023-05-20T20:30:03.686Z,44.72
2023-05-20T20:32:30.541Z,44.04
2023-05-20T20:34:58.282Z,44.23
2023-05-20T20:37:26.881Z,44.17
2023-05-20T20:39:55.267Z,44.17
2023-05-20T20:42:24.677Z,44.08
2023-05-20T20:44:52.653Z,44.17
2023-05-20T20:47:19.464Z,44.14
2023-05-20T20:49:46.547Z,44.13
2023-05-20T20:52:13.399Z,44.54
2023-05-20T20:54:42.889Z,44.37
2023-05-20T20:57:10.198Z,44.38
2023-05-20T20:59:37.244Z,44.75
2023-05-20T21:02:04.559Z,44.73
2023-05-20T21:04:32.894Z,44.77
2023-05-20T21:07:01.777Z,44.65
2023-05-20T21:09:29.237Z,45.10
2023-05-20T21:11:57.244Z,44.78
2023-05-20T21:14:25.350Z,44.75
2023-05-20T21:16:52.181Z,45.14
2023-05-20T21:19:19.272Z,45.02
2023-05-20T21:21:46.050Z,45.00
2023-05-20T21:24:13.212Z,44.96
2023-05-20T21:26:40.038Z,44.83
2023-05-20T21:29:07.498Z,45.37
2023-05-20T21:31:34.376Z,45.20
2023-05-20T21:34:01.585Z,44.87
2023-05-20T21:36:28.337Z,45.34
2023-05-20T21:38:55.559Z,45.15
2023-05-20T21:41:23.493Z,45.23
2023-05-20T21:43:50.841Z,45.41
2023-05-20T21:46:17.629Z,45.55
2023-05-20T21:48:44.740Z,45.36
2023-05-20T21:51:11.500Z,45.35
2023-05-20T21:53:38.545Z,45.83
2023-05-20T21:56:05.524Z,45.33
2023-05-20T21:58:32.640Z,45.45
2023-05-20T22:00:59.412Z,45.46
2023-05-20T22:03:26.566Z,45.50
2023-05-20T22:05:53.367Z,45.60
2023-05-20T22:08:20.445Z,45.62
2023-05-20T22:10:48.407Z,45.70
2023-05-20T22:13:15.514Z,45.77
2023-05-20T22:15:42.265Z,45.37
2023-05-20T22:18:09.639Z,45.54
2023-05-20T22:20:38.614Z,45.44
2023-05-20T22:23:05.867Z,45.98
2023-05-20T22:25:32.710Z,45.77
2023-05-20T22:27:59.866Z,45.44
2023-05-20T22:30:26.602Z,45.85
2023-05-20T22:32:53.729Z,45.76
2023-05-20T22:35:20.721Z,45.35
2023-05-20T22:37:48.273Z,45.88
2023-05-20T22:40:15.502Z,45.90
2023-05-20T22:42:42.593Z,45.95
2023-05-20T22:45:09.879Z,46.08
2023-05-20T22:47:37.017Z,45.71
2023-05-20T22:50:04.097Z,45.49
2023-05-20T22:52:31.509Z,45.30
2023-05-20T22:54:58.600Z,45.59
2023-05-20T22:57:25.759Z,46.10
2023-05-20T22:59:53.943Z,45.78
2023-05-20T23:02:23.213Z,45.62
2023-05-20T23:04:50.533Z,45.86
2023-05-20T23:07:19.365Z,45.91
2023-05-20T23:09:49.053Z,46.13
2023-05-20T23:12:16.291Z,45.80
2023-05-20T23:14:43.009Z,46.32
2023-05-20T23:17:10.139Z,46.13
2023-05-20T23:19:37.010Z,46.40
2023-05-20T23:22:04.419Z,46.00
2023-05-20T23:24:31.139Z,46.31
2023-05-20T23:26:59.349Z,46.53
2023-05-20T23:29:26.960Z,46.23
2023-05-20T23:31:54.020Z,46.65
2023-05-20T23:34:21.444Z,46.28
2023-05-20T23:36:49.922Z,46.50
2023-05-20T23:39:18.317Z,46.58
2023-05-20T23:41:45.616Z,46.15
2023-05-20T23:44:12.398Z,46.57
2023-05-20T23:49:06.808Z,46.04
2023-05-20T23:51:35.492Z,46.16
2023-05-20T23:54:02.234Z,46.55
2023-05-20T23:56:29.346Z,46.18
2023-05-20T23:58:57.778Z,46.27
